Time;durP1;ratioP1;P1;durP2;ratioP2;P2;SDS_P1;SDS_P2;PMS_P1;PMS_P2;Temp;Humidity;BMP_temperature;BMP_pressure;BME280_temperature;BME280_humidity;BME280_pressure;Samples;Min_cycle;Max_cycle;Signal;HPM_P1;HPM_P2
2022/06/19 00:00:35;;;;;;;13.83;8.40;;;;;;;11.86;100.00;100335.73;1742542;82;20981;-71
2022/06/19 00:03:03;;;;;;;10.25;8.05;;;;;;;11.84;100.00;100340.20;1742259;82;21044;-71
2022/06/19 00:05:31;;;;;;;9.85;7.05;;;;;;;11.82;100.00;100339.40;1742894;82;21143;-70
2022/06/19 00:07:58;;;;;;;8.88;6.97;;;;;;;11.80;100.00;100340.80;1742413;82;21028;-70
2022/06/19 00:10:25;;;;;;;9.50;7.15;;;;;;;11.79;100.00;100339.06;1742577;82;21505;-71
2022/06/19 00:12:52;;;;;;;9.15;7.17;;;;;;;11.79;100.00;100340.38;1742553;82;21072;-71
2022/06/19 00:15:19;;;;;;;13.88;6.87;;;;;;;11.69;100.00;100337.71;1742562;82;21047;-72
2022/06/19 00:17:45;;;;;;;8.93;7.30;;;;;;;11.62;100.00;100337.52;1742591;82;21160;-71
2022/06/19 00:20:12;;;;;;;13.20;6.95;;;;;;;11.59;100.00;100335.00;1742641;82;21509;-72
2022/06/19 00:22:39;;;;;;;7.12;5.75;;;;;;;11.57;100.00;100336.84;1742544;81;21020;-71
2022/06/19 00:25:08;;;;;;;9.23;7.12;;;;;;;11.54;100.00;100342.63;1742391;82;21048;-70
2022/06/19 00:27:39;;;;;;;8.35;6.67;;;;;;;11.52;100.00;100341.81;1742704;82;21103;-71
2022/06/19 00:30:09;;;;;;;9.95;7.62;;;;;;;11.50;100.00;100342.36;1742580;82;21191;-70
2022/06/19 00:32:36;;;;;;;11.18;8.28;;;;;;;11.51;100.00;100341.43;1742843;82;21044;-71
2022/06/19 00:35:05;;;;;;;12.18;7.75;;;;;;;11.50;100.00;100341.48;1742914;81;21079;-70
2022/06/19 00:37:33;;;;;;;12.78;7.92;;;;;;;11.47;100.00;100337.18;1742444;82;21151;-71
2022/06/19 00:40:05;;;;;;;13.60;8.08;;;;;;;11.47;100.00;100331.91;1742432;82;21476;-72
2022/06/19 00:42:32;;;;;;;10.95;7.42;;;;;;;11.48;100.00;100332.33;1742566;82;21217;-71
2022/06/19 00:45:00;;;;;;;13.70;7.95;;;;;;;11.46;100.00;100330.20;1742310;82;21057;-71
2022/06/19 00:47:29;;;;;;;10.93;7.92;;;;;;;11.46;100.00;100342.53;1742335;82;21504;-72
2022/06/19 00:50:20;;;;;;;10.32;7.45;;;;;;;11.44;100.00;100339.94;1742356;81;21077;-72
2022/06/19 00:52:46;;;;;;;9.50;6.83;;;;;;;11.43;100.00;100338.20;1724746;82;21057;-71
2022/06/19 00:55:20;;;;;;;9.70;7.50;;;;;;;11.39;100.00;100336.63;1742517;82;22139;-71
2022/06/19 00:58:05;;;;;;;10.93;7.28;;;;;;;11.37;100.00;100335.82;1742352;82;21029;-71
2022/06/19 01:02:57;;;;;;;9.55;8.25;;;;;;;11.31;100.00;100338.67;1796650;79;28901;-70
2022/06/19 01:05:25;;;;;;;;;;;;;;;11.28;100.00;100338.80;1759296;81;21000;-72
2022/06/19 01:07:51;;;;;;;10.95;9.08;;;;;;;11.28;100.00;100340.11;1756368;81;21801;-70
2022/06/19 01:10:19;;;;;;;11.20;8.50;;;;;;;11.24;100.00;100332.76;1756263;81;21034;-70
2022/06/19 01:12:46;;;;;;;12.35;8.83;;;;;;;11.23;100.00;100335.47;1756510;81;21065;-71
2022/06/19 01:15:17;;;;;;;12.47;8.43;;;;;;;11.20;100.00;100339.52;1756454;81;21050;-71
2022/06/19 01:17:47;;;;;;;19.15;9.95;;;;;;;11.20;100.00;100333.78;1756297;81;21124;-71
2022/06/19 01:20:14;;;;;;;12.23;9.35;;;;;;;11.15;100.00;100334.88;1756334;81;21799;-71
2022/06/19 01:23:10;;;;;;;15.08;9.55;;;;;;;11.09;100.00;100339.46;1750061;81;20982;-72
2022/06/19 01:25:39;;;;;;;10.00;7.92;;;;;;;11.08;100.00;100340.36;1748328;82;21018;-72
2022/06/19 01:30:57;;;;;;;;;;;;;;;11.08;100.00;100342.14;1750762;82;21020;-71
2022/06/19 01:33:32;;;;;;;13.68;8.78;;;;;;;11.10;100.00;100343.80;1747993;82;21854;-72
2022/06/19 01:36:01;;;;;;;15.78;8.95;;;;;;;11.07;100.00;100345.24;1747857;82;21049;-71
2022/06/19 01:38:28;;;;;;;10.55;8.20;;;;;;;11.06;100.00;100342.65;1747838;82;21128;-71
2022/06/19 01:40:59;;;;;;;10.85;8.58;;;;;;;11.06;100.00;100342.19;1747901;82;21024;-71
2022/06/19 01:43:28;;;;;;;11.75;9.45;;;;;;;11.06;100.00;100341.33;1747767;82;21045;-70
2022/06/19 01:45:57;;;;;;;11.28;8.68;;;;;;;11.06;100.00;100340.87;1748063;82;21129;-71
2022/06/19 01:48:28;;;;;;;9.20;6.87;;;;;;;11.05;100.00;100340.48;1747759;82;21048;-71
2022/06/19 01:50:55;;;;;;;;;;;;;;;11.06;100.00;100343.50;1750535;82;21581;-72
2022/06/19 01:53:43;;;;;;;8.78;7.58;;;;;;;11.09;100.00;100343.41;1747596;81;20516;-70
2022/06/19 01:56:11;;;;;;;9.25;7.70;;;;;;;11.07;100.00;100343.92;1747818;82;21014;-71
2022/06/19 01:58:43;;;;;;;10.38;8.03;;;;;;;11.05;100.00;100340.48;1747636;82;21329;-71
2022/06/19 02:01:09;;;;;;;;;;;;;;;11.06;100.00;100342.19;1747781;81;21650;-71
2022/06/19 02:03:44;;;;;;;11.12;8.73;;;;;;;11.05;100.00;100335.20;1734660;82;20182;-72
2022/06/19 02:06:13;;;;;;;12.03;8.85;;;;;;;11.05;100.00;100340.48;1734641;82;21593;-72
2022/06/19 02:08:41;;;;;;;12.40;8.88;;;;;;;11.07;100.00;100343.92;1734743;82;21046;-71
2022/06/19 02:11:11;;;;;;;10.25;8.50;;;;;;;11.11;100.00;100344.22;1734910;82;21130;-71
2022/06/19 02:13:39;;;;;;;13.35;8.90;;;;;;;11.13;100.00;100350.30;1734156;82;21058;-71
2022/06/19 02:16:09;;;;;;;18.40;9.40;;;;;;;11.16;100.00;100345.81;1734404;82;21129;-71
2022/06/19 02:18:39;;;;;;;9.23;7.97;;;;;;;11.22;100.00;100350.87;1734184;82;21531;-70
2022/06/19 02:21:10;;;;;;;14.98;8.43;;;;;;;11.27;100.00;100350.23;1734136;82;21097;-71
2022/06/19 02:23:37;;;;;;;15.32;7.95;;;;;;;11.33;100.00;100355.30;1734139;82;21098;-71
2022/06/19 02:26:09;;;;;;;8.73;7.55;;;;;;;11.37;100.00;100350.79;1734369;82;21073;-71
2022/06/19 02:28:46;;;;;;;10.20;7.50;;;;;;;11.44;100.00;100361.04;1713714;82;21039;-71
2022/06/19 02:31:13;;;;;;;10.15;7.42;;;;;;;11.51;100.00;100358.58;1734281;82;21007;-70
2022/06/19 02:33:44;;;;;;;11.93;7.95;;;;;;;11.63;100.00;100357.72;1734420;82;21054;-72
2022/06/19 02:36:36;;;;;;;13.53;8.88;;;;;;;11.74;100.00;100358.17;1734563;82;21143;-72
2022/06/19 02:39:43;;;;;;;13.72;9.40;;;;;;;11.83;100.00;100360.46;1662313;85;21068;-70
2022/06/19 02:42:35;;;;;;;12.47;8.23;;;;;;;12.05;100.00;100361.81;1676248;85;21038;-71
2022/06/19 02:45:16;;;;;;;9.93;7.55;;;;;;;12.22;100.00;100359.00;1711644;82;21039;-71
2022/06/19 02:47:45;;;;;;;10.53;7.90;;;;;;;12.33;100.00;100355.00;1705044;83;21098;-71
2022/06/19 02:50:17;;;;;;;8.33;7.08;;;;;;;12.38;100.00;100354.34;1704778;84;21124;-72
2022/06/19 02:52:46;;;;;;;11.12;7.87;;;;;;;12.48;100.00;100354.81;1704933;83;21069;-72
2022/06/19 02:55:13;;;;;;;11.65;7.97;;;;;;;12.56;100.00;100350.52;1704879;84;21105;-70
2022/06/19 02:57:41;;;;;;;10.10;7.28;;;;;;;12.60;100.00;100349.48;1716917;82;21026;-71
2022/06/19 03:00:19;;;;;;;8.98;7.30;;;;;;;12.66;100.00;100347.06;1734205;82;21561;-70
2022/06/19 03:02:47;;;;;;;9.20;7.22;;;;;;;12.68;100.00;100346.06;1743477;81;21256;-72
2022/06/19 03:05:22;;;;;;;10.45;7.42;;;;;;;12.70;100.00;100347.30;1748137;82;21077;-72
2022/06/19 03:07:50;;;;;;;6.97;5.70;;;;;;;12.71;100.00;100347.25;1748524;81;21021;-71
2022/06/19 03:10:17;;;;;;;8.80;6.58;;;;;;;12.69;100.00;100347.77;1748247;82;21581;-72
2022/06/19 03:12:46;;;;;;;7.85;6.58;;;;;;;12.70;100.00;100345.98;1748324;82;21089;-72
2022/06/19 03:15:14;;;;;;;7.50;5.47;;;;;;;12.84;100.00;100346.28;1748091;82;21890;-72
2022/06/19 03:17:40;;;;;;;7.12;5.37;;;;;;;12.96;100.00;100343.56;1748018;82;21051;-71
2022/06/19 03:20:11;;;;;;;7.40;5.87;;;;;;;13.05;100.00;100340.52;1748344;82;21061;-70
2022/06/19 03:22:37;;;;;;;10.10;5.30;;;;;;;13.12;100.00;100337.99;1748316;82;21056;-72
2022/06/19 03:25:06;;;;;;;8.53;6.92;;;;;;;13.11;100.00;100334.97;1747956;82;21053;-70
2022/06/19 03:27:32;;;;;;;8.15;6.62;;;;;;;13.20;100.00;100337.20;1748271;82;21929;-72
2022/06/19 03:30:01;;;;;;;12.78;7.53;;;;;;;13.26;100.00;100336.06;1747907;82;21645;-71
2022/06/19 03:32:27;;;;;;;11.63;6.50;;;;;;;13.39;100.00;100339.05;1748532;82;21066;-71
2022/06/19 03:34:54;;;;;;;13.80;7.70;;;;;;;13.54;100.00;100335.69;1748039;82;21556;-71
2022/06/19 03:37:21;;;;;;;12.37;7.60;;;;;;;13.79;100.00;100331.91;1720044;82;21093;-70
2022/06/19 03:39:50;;;;;;;12.60;6.78;;;;;;;14.04;100.00;100339.08;1748147;82;21871;-71
2022/06/19 03:42:17;;;;;;;9.23;6.95;;;;;;;14.27;100.00;100331.81;1748163;82;21026;-72
2022/06/19 03:44:44;;;;;;;8.58;6.62;;;;;;;14.53;100.00;100331.83;1741183;82;21041;-70
2022/06/19 03:47:13;;;;;;;7.78;6.25;;;;;;;14.76;100.00;100326.72;1718360;83;21049;-70
2022/06/19 03:49:40;;;;;;;10.05;6.95;;;;;;;15.01;100.00;100334.74;1692067;83;21056;-71
2022/06/19 03:52:07;;;;;;;7.17;6.35;;;;;;;15.31;100.00;100334.44;1718236;83;21120;-71
2022/06/19 03:54:34;;;;;;;10.03;6.45;;;;;;;15.62;100.00;100327.48;1718337;83;21041;-71
2022/06/19 03:57:00;;;;;;;8.88;6.10;;;;;;;15.92;100.00;100329.42;1718686;83;21546;-72
2022/06/19 03:59:28;;;;;;;11.20;6.70;;;;;;;16.20;100.00;100332.70;1745113;82;21030;-71
2022/06/19 04:01:59;;;;;;;8.13;5.45;;;;;;;16.49;100.00;100325.67;1745253;81;21077;-71
2022/06/19 04:04:25;;;;;;;13.03;6.90;;;;;;;16.81;100.00;100325.61;1734007;82;21114;-71
2022/06/19 04:06:52;;;;;;;9.43;6.87;;;;;;;17.12;100.00;100322.45;1734036;82;21578;-71
2022/06/19 04:09:20;;;;;;;10.40;6.65;;;;;;;17.44;100.00;100327.11;1734063;82;21089;-72
2022/06/19 04:11:48;;;;;;;8.88;5.65;;;;;;;17.69;100.00;100322.42;1734076;82;21085;-72
2022/06/19 04:14:16;;;;;;;8.23;6.28;;;;;;;18.01;99.24;100327.50;1734287;82;21086;-71
2022/06/19 04:16:44;;;;;;;9.30;6.33;;;;;;;18.38;97.43;100323.75;1734213;82;21134;-71
2022/06/19 04:19:10;;;;;;;11.15;6.20;;;;;;;18.73;93.86;100325.41;1733975;82;21078;-72
2022/06/19 04:21:42;;;;;;;7.37;5.78;;;;;;;19.05;92.75;100328.56;1734331;82;21034;-72
2022/06/19 04:24:10;;;;;;;7.15;5.20;;;;;;;19.39;89.55;100326.18;1734000;82;21100;-71
2022/06/19 04:26:38;;;;;;;7.53;5.70;;;;;;;19.74;87.83;100329.55;1734015;82;21073;-71
2022/06/19 04:29:06;;;;;;;8.30;4.80;;;;;;;20.11;86.27;100326.86;1734288;82;21136;-71
2022/06/19 04:31:33;;;;;;;4.95;4.25;;;;;;;20.47;82.49;100328.59;1734185;82;21053;-72
2022/06/19 04:34:00;;;;;;;8.95;4.40;;;;;;;20.76;75.18;100314.02;1734154;82;21089;-71
2022/06/19 04:36:31;;;;;;;7.12;4.50;;;;;;;21.11;76.02;100321.50;1734143;82;21046;-70
2022/06/19 04:39:03;;;;;;;5.55;4.10;;;;;;;21.43;75.31;100328.86;1734484;82;22038;-71
2022/06/19 04:41:31;;;;;;;5.28;3.98;;;;;;;21.68;72.74;100322.89;1732929;82;21244;-73
2022/06/19 04:43:59;;;;;;;8.15;4.50;;;;;;;21.88;70.00;100324.81;1733890;82;21093;-72
2022/06/19 04:46:27;;;;;;;6.37;4.55;;;;;;;22.14;69.27;100321.33;1733909;82;21058;-71
2022/06/19 04:48:53;;;;;;;9.13;5.40;;;;;;;22.40;69.15;100317.00;1734004;82;21577;-73
2022/06/19 04:51:20;;;;;;;8.70;5.15;;;;;;;22.67;68.07;100315.17;1733956;82;21191;-72
2022/06/19 04:53:47;;;;;;;7.53;4.53;;;;;;;22.93;67.04;100312.09;1733932;82;21840;-72
2022/06/19 04:56:15;;;;;;;5.85;3.92;;;;;;;23.16;65.30;100309.62;1734189;82;21057;-72
2022/06/19 04:58:42;;;;;;;7.58;4.83;;;;;;;23.38;64.15;100304.58;1734028;82;21613;-71
2022/06/19 05:01:13;;;;;;;4.80;3.60;;;;;;;23.65;62.79;100308.02;1734170;82;21007;-72
2022/06/19 05:03:40;;;;;;;;;;;;;;;23.93;60.64;100307.41;1747253;82;20994;-71
2022/06/19 05:06:06;;;;;;;3.95;3.20;;;;;;;24.10;59.23;100305.88;1748352;82;21784;-72
2022/06/19 05:08:34;;;;;;;4.50;2.60;;;;;;;24.29;57.90;100301.84;1747800;82;21136;-72
2022/06/19 05:11:01;;;;;;;2.92;2.55;;;;;;;24.44;56.12;100305.81;1747835;82;21085;-72
2022/06/19 05:13:27;;;;;;;3.87;2.45;;;;;;;24.87;54.12;100316.66;1748063;82;21077;-71
2022/06/19 05:16:18;;;;;;;4.42;2.30;;;;;;;25.11;50.58;100312.63;1748233;82;21147;-73
2022/06/19 05:18:44;;;;;;;4.05;2.10;;;;;;;25.39;47.16;100311.35;1747854;82;21259;-72
2022/06/19 05:21:13;;;;;;;2.33;2.12;;;;;;;25.64;45.63;100312.01;1720323;82;21554;-72
2022/06/19 05:23:44;;;;;;;4.53;2.55;;;;;;;25.89;43.90;100309.64;1747957;82;21072;-72
2022/06/19 05:26:20;;;;;;;4.03;2.10;;;;;;;26.18;43.57;100319.38;1748011;82;21045;-72
2022/06/19 05:28:48;;;;;;;2.90;1.95;;;;;;;26.45;41.37;100313.91;1748404;82;21073;-72
2022/06/19 05:31:16;;;;;;;7.33;2.25;;;;;;;26.75;41.12;100307.77;1748030;82;21424;-72
2022/06/19 05:33:44;;;;;;;4.45;2.15;;;;;;;26.98;38.67;100302.19;1748030;82;21042;-72
2022/06/19 05:36:11;;;;;;;3.25;2.00;;;;;;;27.06;39.07;100304.11;1747936;82;21671;-73
2022/06/19 05:38:38;;;;;;;6.05;2.42;;;;;;;27.21;37.77;100313.84;1747992;82;21038;-73
2022/06/19 05:41:05;;;;;;;3.85;1.85;;;;;;;27.43;37.82;100312.97;1748103;82;21089;-73
2022/06/19 05:43:33;;;;;;;4.78;2.20;;;;;;;27.65;36.79;100315.07;1748140;82;21145;-73
2022/06/19 05:46:03;;;;;;;3.05;1.82;;;;;;;27.78;36.68;100318.17;1725529;82;21053;-73
2022/06/19 05:48:30;;;;;;;3.30;2.17;;;;;;;27.80;36.49;100305.33;1718500;83;21060;-71
2022/06/19 05:51:08;;;;;;;4.15;2.40;;;;;;;27.89;35.81;100309.45;1718336;83;21104;-72
2022/06/19 05:53:43;;;;;;;3.87;2.25;;;;;;;28.00;36.65;100311.86;1718398;83;21177;-71
2022/06/19 05:56:09;;;;;;;2.58;1.92;;;;;;;28.26;35.14;100316.30;1718359;83;21965;-73
2022/06/19 05:58:37;;;;;;;4.20;2.15;;;;;;;28.36;34.67;100312.91;1718296;83;21534;-72
2022/06/19 06:01:05;;;;;;;2.33;1.90;;;;;;;28.42;35.33;100309.55;1718172;83;21601;-73
2022/06/19 06:03:32;;;;;;;2.85;1.82;;;;;;;28.66;35.63;100320.39;1718508;83;21064;-72
2022/06/19 06:06:04;;;;;;;5.20;2.00;;;;;;;28.91;34.32;100320.39;1718317;83;21064;-73
2022/06/19 06:08:32;;;;;;;2.67;1.50;;;;;;;29.09;34.09;100313.97;1718465;83;21086;-71
2022/06/19 06:11:00;;;;;;;3.90;1.52;;;;;;;29.25;33.63;100317.48;1692030;83;21553;-72
2022/06/19 06:13:29;;;;;;;2.90;1.45;;;;;;;29.31;32.79;100315.95;1718314;83;21081;-72
2022/06/19 06:15:56;;;;;;;2.50;1.70;;;;;;;29.38;32.92;100315.59;1718338;83;21061;-72
2022/06/19 06:18:23;;;;;;;1.87;1.50;;;;;;;29.55;32.57;100325.86;1718759;83;21077;-71
2022/06/19 06:21:08;;;;;;;2.12;1.40;;;;;;;29.73;31.68;100317.51;1718482;83;22202;-72
2022/06/19 06:23:35;;;;;;;2.25;1.40;;;;;;;29.90;32.37;100312.31;1718286;83;21045;-72
2022/06/19 06:26:08;;;;;;;4.47;1.70;;;;;;;30.15;31.69;100314.05;1718537;83;21017;-72
2022/06/19 06:28:37;;;;;;;4.15;1.50;;;;;;;30.31;31.61;100317.52;1718471;83;21620;-73
2022/06/19 06:31:04;;;;;;;4.25;1.72;;;;;;;30.47;31.66;100323.34;1718509;83;21101;-72
2022/06/19 06:33:32;;;;;;;4.37;1.55;;;;;;;30.59;31.87;100310.17;1718576;83;21877;-74
2022/06/19 06:35:59;;;;;;;3.02;1.35;;;;;;;30.54;30.17;100311.23;1718442;83;21052;-72
2022/06/19 06:38:26;;;;;;;2.40;1.60;;;;;;;30.49;30.25;100309.59;1718727;83;21731;-72
2022/06/19 06:40:53;;;;;;;3.47;1.37;;;;;;;30.37;30.09;100311.89;1718943;83;21486;-72
2022/06/19 06:43:20;;;;;;;2.62;1.62;;;;;;;30.27;30.98;100312.11;1692986;83;21042;-72
2022/06/19 06:45:48;;;;;;;1.90;1.47;;;;;;;30.31;31.30;100316.16;1739339;82;21136;-72
2022/06/19 06:48:17;;;;;;;2.17;1.30;;;;;;;30.58;30.29;100300.34;1749355;82;21022;-73
2022/06/19 06:50:44;;;;;;;3.08;1.20;;;;;;;30.58;30.29;100300.34;1749821;82;21017;-72
2022/06/19 06:53:11;;;;;;;2.50;1.37;;;;;;;30.58;29.79;100308.49;1749427;82;21573;-72
2022/06/19 06:55:43;;;;;;;2.45;1.32;;;;;;;30.74;29.38;100302.91;1749449;82;20988;-73
2022/06/19 06:58:11;;;;;;;3.17;1.40;;;;;;;30.74;29.38;100302.91;1748498;82;21542;-73
2022/06/19 07:00:38;;;;;;;1.75;1.15;;;;;;;30.74;29.71;100300.19;1748594;82;21045;-73
2022/06/19 07:03:05;;;;;;;1.92;1.37;;;;;;;30.75;29.47;100294.23;1748333;81;21026;-74
2022/06/19 07:05:34;;;;;;;3.80;1.40;;;;;;;30.73;29.69;100288.97;1748184;82;21557;-72
2022/06/19 07:08:01;;;;;;;2.72;1.50;;;;;;;30.73;29.63;100284.89;1748107;82;21092;-72
2022/06/19 07:10:31;;;;;;;2.17;1.37;;;;;;;30.72;29.46;100291.89;1748824;82;21068;-72
2022/06/19 07:12:58;;;;;;;3.52;1.90;;;;;;;30.63;30.10;100297.91;1748376;82;21029;-73
2022/06/19 07:15:25;;;;;;;2.20;1.20;;;;;;;30.84;29.42;100290.93;1748379;82;21053;-72
2022/06/19 07:17:52;;;;;;;1.70;1.25;;;;;;;31.00;30.03;100288.07;1748175;82;21046;-72
2022/06/19 07:20:20;;;;;;;3.67;1.40;;;;;;;31.17;29.39;100285.17;1748158;82;21110;-72
2022/06/19 07:22:47;;;;;;;1.90;1.32;;;;;;;31.34;28.75;100272.55;1748020;82;21156;-71
2022/06/19 07:25:19;;;;;;;2.52;1.20;;;;;;;31.44;28.04;100268.73;1748191;82;21061;-73
2022/06/19 07:27:46;;;;;;;2.12;1.20;;;;;;;31.64;27.79;100266.27;1748062;82;21127;-73
2022/06/19 07:30:18;;;;;;;1.30;1.20;;;;;;;31.74;28.33;100262.70;1748055;82;21101;-73
2022/06/19 07:32:45;;;;;;;1.92;1.25;;;;;;;31.76;27.38;100266.92;1748304;82;21010;-72
2022/06/19 07:35:12;;;;;;;3.22;1.10;;;;;;;31.55;27.49;100260.92;1748046;82;22008;-73
2022/06/19 07:37:39;;;;;;;1.57;0.95;;;;;;;31.54;27.25;100260.61;1748005;82;21120;-73
2022/06/19 07:40:07;;;;;;;2.95;1.20;;;;;;;31.59;27.18;100260.53;1748253;82;21561;-72
2022/06/19 07:42:34;;;;;;;1.87;1.00;;;;;;;31.60;27.49;100258.15;1748176;82;21013;-72
2022/06/19 07:45:02;;;;;;;1.72;0.98;;;;;;;31.58;26.04;100257.48;1737493;82;21118;-73
2022/06/19 07:50:16;;;;;;;2.15;1.12;;;;;;;31.52;26.97;100250.42;1718360;83;21029;-72
2022/06/19 07:52:46;;;;;;;3.40;1.47;;;;;;;31.54;27.05;100241.55;1718245;83;21089;-71
2022/06/19 07:55:17;;;;;;;1.22;0.90;;;;;;;31.75;26.82;100239.91;1718294;83;21100;-73
2022/06/19 07:57:44;;;;;;;1.62;1.00;;;;;;;31.96;26.81;100233.14;1717932;83;21558;-72
2022/06/19 08:00:17;;;;;;;1.77;1.10;;;;;;;32.22;25.62;100228.98;1718456;83;21163;-72
2022/06/19 08:02:49;;;;;;;2.20;1.10;;;;;;;32.36;25.89;100237.59;1718184;83;21038;-72
2022/06/19 08:05:22;;;;;;;2.62;1.20;;;;;;;32.54;25.70;100230.86;1718375;83;21029;-72
2022/06/19 08:07:50;;;;;;;3.52;1.07;;;;;;;32.27;25.34;100236.05;1718299;83;21552;-73
2022/06/19 08:10:23;;;;;;;4.42;1.35;;;;;;;31.85;25.98;100233.62;1718505;83;21030;-72
2022/06/19 08:12:52;;;;;;;2.22;0.95;;;;;;;31.65;25.70;100239.36;1718054;83;21632;-73
2022/06/19 08:15:21;;;;;;;1.57;0.90;;;;;;;31.73;25.82;100233.81;1718264;83;21501;-73
2022/06/19 08:17:48;;;;;;;2.72;1.12;;;;;;;31.90;24.75;100244.77;1718377;83;21048;-73
2022/06/19 08:20:17;;;;;;;2.40;1.12;;;;;;;32.11;24.81;100237.67;1718315;83;21018;-74
2022/06/19 08:22:46;;;;;;;3.20;1.10;;;;;;;32.01;25.04;100235.81;1718489;83;21108;-73
2022/06/19 08:25:15;;;;;;;1.07;0.95;;;;;;;31.88;25.35;100233.22;1718713;83;21233;-71
2022/06/19 08:27:47;;;;;;;1.07;0.97;;;;;;;32.11;25.79;100222.70;1718526;83;21494;-72
2022/06/19 08:30:18;;;;;;;3.35;1.02;;;;;;;32.40;25.08;100227.98;1718634;83;21100;-72
2022/06/19 08:32:45;;;;;;;2.40;0.95;;;;;;;32.69;24.82;100224.77;1718433;83;21514;-73
2022/06/19 08:35:12;;;;;;;1.42;1.10;;;;;;;32.94;25.03;100222.94;1718399;83;21069;-71
2022/06/19 08:37:41;;;;;;;2.22;1.00;;;;;;;33.18;24.57;100224.38;1718336;83;21053;-73
2022/06/19 08:40:42;;;;;;;1.50;1.07;;;;;;;33.40;24.00;100219.63;1718398;83;21567;-73
2022/06/19 08:43:57;;;;;;;3.62;1.30;;;;;;;33.46;23.98;100218.82;1717693;83;21959;-73
2022/06/19 08:46:59;;;;;;;3.08;1.15;;;;;;;33.49;23.35;100215.67;1745704;82;21597;-72
2022/06/19 08:49:50;;;;;;;3.12;1.00;;;;;;;33.46;23.81;100213.36;1748228;81;21549;-72
2022/06/19 08:52:59;;;;;;;2.27;1.20;;;;;;;33.30;24.03;100218.64;1748731;81;21107;-73
2022/06/19 08:55:49;;;;;;;4.55;1.42;;;;;;;33.45;24.10;100214.39;1748359;81;21040;-73
2022/06/19 08:58:41;;;;;;;3.67;1.35;;;;;;;33.50;24.42;100213.28;1748324;82;21662;-72
2022/06/19 09:01:33;;;;;;;4.03;1.37;;;;;;;33.33;24.29;100217.39;1739941;82;21045;-72
2022/06/19 09:07:22;;;;;;;2.22;1.12;;;;;;;33.02;24.33;100209.98;1734135;82;21254;-72
2022/06/19 09:10:14;;;;;;;2.52;1.12;;;;;;;33.17;24.41;100212.59;1734100;82;21054;-73
2022/06/19 09:13:07;;;;;;;1.87;1.10;;;;;;;33.41;24.28;100208.52;1733801;81;21011;-73
2022/06/19 09:16:05;;;;;;;3.10;1.10;;;;;;;33.70;23.66;100201.59;1661874;85;21033;-72
2022/06/19 09:18:55;;;;;;;1.87;1.02;;;;;;;33.81;23.74;100205.08;1730739;82;21006;-72
2022/06/19 09:22:01;;;;;;;2.92;1.45;;;;;;;33.97;23.75;100189.66;1734360;82;21193;-73
2022/06/19 09:24:59;;;;;;;2.77;1.30;;;;;;;34.15;23.48;100183.61;1734262;82;21003;-73
2022/06/19 09:27:30;;;;;;;1.85;0.90;;;;;;;34.21;23.46;100175.09;1724740;82;21109;-72
2022/06/19 09:30:04;;;;;;;2.85;1.02;;;;;;;34.19;22.56;100185.41;1734303;82;21030;-72
2022/06/19 09:32:39;;;;;;;2.47;1.05;;;;;;;34.34;22.83;100183.28;1734273;82;21617;-73
2022/06/19 09:35:20;;;;;;;2.75;0.85;;;;;;;34.51;22.68;100179.61;1734063;82;21059;-72
2022/06/19 09:38:01;;;;;;;1.42;1.00;;;;;;;34.71;22.72;100176.84;1734140;82;21280;-72
2022/06/19 09:40:34;;;;;;;9.10;1.22;;;;;;;34.98;22.67;100168.05;1734450;82;21026;-73
2022/06/19 09:43:16;;;;;;;3.45;1.10;;;;;;;35.04;22.15;100173.17;1734187;82;21566;-73
2022/06/19 09:45:48;;;;;;;5.53;0.90;;;;;;;35.05;22.03;100162.55;1715601;82;21093;-73
2022/06/19 09:48:23;;;;;;;2.80;1.15;;;;;;;34.80;22.95;100149.58;1704732;84;21208;-72
2022/06/19 09:51:10;;;;;;;2.30;1.00;;;;;;;34.56;22.72;100168.03;1705214;84;21069;-72
2022/06/19 09:53:46;;;;;;;2.60;1.22;;;;;;;34.51;22.38;100169.17;1704813;84;21053;-72
2022/06/19 09:56:35;;;;;;;6.40;1.10;;;;;;;34.48;22.34;100169.91;1705096;84;21049;-72
2022/06/19 09:59:30;;;;;;;2.52;1.15;;;;;;;34.28;22.64;100156.82;1705084;84;21065;-73
2022/06/19 10:01:57;;;;;;;2.17;1.20;;;;;;;33.52;24.01;100168.88;1701938;83;22280;-72
2022/06/19 10:04:44;;;;;;;12.30;1.60;;;;;;;33.56;24.04;100172.84;1709920;83;21568;-72
2022/06/19 10:07:45;;;;;;;1.65;0.88;;;;;;;33.79;23.53;100171.67;1718578;83;21049;-73
2022/06/19 10:10:33;;;;;;;3.02;1.15;;;;;;;33.88;23.47;100181.34;1718040;83;21128;-72
2022/06/19 10:13:00;;;;;;;2.55;0.98;;;;;;;34.29;23.55;100172.16;1718492;83;21117;-73
2022/06/19 10:15:30;;;;;;;5.20;1.10;;;;;;;34.70;23.34;100176.55;1718197;83;21112;-73
2022/06/19 10:18:13;;;;;;;2.75;0.90;;;;;;;34.77;22.49;100174.63;1718411;83;21061;-73
2022/06/19 10:21:04;;;;;;;2.40;0.98;;;;;;;34.68;23.18;100177.28;1718439;83;21038;-72
2022/06/19 10:23:58;;;;;;;3.85;1.30;;;;;;;34.64;22.45;100179.59;1718490;83;22216;-73
2022/06/19 10:26:33;;;;;;;2.27;0.90;;;;;;;34.82;21.58;100176.19;1742162;82;21126;-72
2022/06/19 10:29:30;;;;;;;3.08;1.20;;;;;;;34.80;21.88;100182.41;1722699;82;21940;-73
2022/06/19 10:32:02;;;;;;;4.62;1.05;;;;;;;34.74;21.92;100180.55;1702738;83;21073;-72
2022/06/19 10:34:40;;;;;;;2.02;0.60;;;;;;;34.56;22.17;100174.88;1718364;83;21060;-73
2022/06/19 10:37:47;;;;;;;2.33;1.30;;;;;;;34.48;22.10;100172.64;1717957;83;21100;-73
2022/06/19 10:40:44;;;;;;;1.95;0.80;;;;;;;34.45;22.15;100168.98;1718156;83;21049;-72
2022/06/19 10:43:22;;;;;;;3.22;1.05;;;;;;;34.14;22.35;100174.25;1718536;83;21080;-74
2022/06/19 10:45:56;;;;;;;3.42;1.00;;;;;;;34.21;23.00;100170.98;1737368;82;21122;-73
2022/06/19 10:48:40;;;;;;;3.77;1.02;;;;;;;34.33;23.09;100165.22;1748280;82;21080;-72
2022/06/19 10:51:53;;;;;;;2.45;1.02;;;;;;;34.46;23.13;100170.68;1748086;82;21041;-71
2022/06/19 10:54:49;;;;;;;2.55;0.80;;;;;;;34.62;21.89;100169.92;1748080;82;21502;-73
2022/06/19 10:57:43;;;;;;;2.55;0.90;;;;;;;34.74;21.65;100168.73;1748089;82;21115;-72
2022/06/19 11:00:11;;;;;;;3.62;1.30;;;;;;;34.76;21.83;100159.27;1741843;82;21070;-72
2022/06/19 11:05:41;;;;;;;4.50;0.90;;;;;;;35.02;21.38;100153.41;1747672;81;21029;-72
2022/06/19 11:08:08;;;;;;;3.92;1.10;;;;;;;34.78;21.47;100151.69;1747858;81;21136;-72
2022/06/19 11:10:42;;;;;;;2.25;1.00;;;;;;;34.72;22.38;100147.09;1748002;82;21598;-72
2022/06/19 11:13:10;;;;;;;3.83;1.10;;;;;;;34.68;21.78;100143.09;1748110;82;21065;-73
2022/06/19 11:15:43;;;;;;;3.80;1.90;;;;;;;34.51;22.22;100141.83;1748170;82;21038;-74
2022/06/19 11:18:21;;;;;;;3.62;1.50;;;;;;;34.57;22.29;100145.92;1748193;82;21602;-73
2022/06/19 11:21:13;;;;;;;4.10;1.02;;;;;;;34.55;22.70;100141.19;1748378;82;21092;-73
2022/06/19 11:23:55;;;;;;;4.15;1.12;;;;;;;34.65;22.71;100127.12;1748177;82;22161;-73
2022/06/19 11:26:31;;;;;;;2.62;1.10;;;;;;;34.57;21.98;100139.63;1748373;82;21425;-73
2022/06/19 11:29:05;;;;;;;3.47;1.05;;;;;;;34.38;22.31;100145.45;1747857;82;21085;-74
2022/06/19 11:31:36;;;;;;;2.65;1.10;;;;;;;34.17;23.12;100135.59;1748259;81;21052;-72
2022/06/19 11:37:31;;;;;;;1.60;0.95;;;;;;;34.24;22.63;100134.52;1734817;82;21146;-72
2022/06/19 11:40:07;;;;;;;2.25;1.10;;;;;;;34.35;22.72;100124.84;1730968;82;21002;-74
2022/06/19 11:42:54;;;;;;;3.45;1.50;;;;;;;34.41;22.67;100123.97;1748110;82;21017;-73
2022/06/19 11:45:27;;;;;;;2.42;1.17;;;;;;;34.58;23.15;100124.87;1733383;82;21598;-72
2022/06/19 11:48:00;;;;;;;2.60;1.10;;;;;;;34.72;23.00;100125.22;1718167;83;21065;-73
2022/06/19 11:50:38;;;;;;;2.83;0.78;;;;;;;34.75;22.56;100122.04;1718387;83;21954;-73
2022/06/19 11:53:16;;;;;;;3.22;1.02;;;;;;;34.41;22.19;100119.88;1718632;83;21017;-73
2022/06/19 11:55:48;;;;;;;3.25;1.00;;;;;;;33.80;23.15;100121.48;1718163;83;21093;-73
2022/06/19 11:58:38;;;;;;;4.15;1.10;;;;;;;33.30;23.92;100127.22;1710797;83;21033;-72
2022/06/19 12:01:10;;;;;;;1.45;0.90;;;;;;;33.07;23.55;100119.38;1718307;83;21074;-74
2022/06/19 12:03:56;;;;;;;3.60;1.40;;;;;;;32.92;24.05;100111.83;1718452;83;22003;-71
2022/06/19 12:06:45;;;;;;;2.58;1.17;;;;;;;32.73;24.64;100115.63;1718084;83;21053;-73